Terminal Aerodrome Forecast
Issued by NWS

Home | Current Version | Previous Version | Text Only | Print | Product List | Glossary Off
Versions: 1 2 3 4 5 6 7 8 9 10 11 12 13 14 15 16 17 18

000
FTUS43 KTOP 251900 AAA
TAFMHK
TAF AMD
KMHK 251929Z 2519/2618 02013G23KT P6SM BKN015 OVC120
     FM252100 02014G23KT 5SM -RA BR BKN015 OVC050
     FM260500 01005KT P6SM FEW015 SCT050 BKN100
      TEMPO 2610/2613 3SM BR=

USA.gov is the U.S. government's official web portal to all federal, state and local government web resources and services.